Time;durP1;ratioP1;P1;durP2;ratioP2;P2;SDS_P1;SDS_P2;PMS_P1;PMS_P2;Temp;Humidity;BMP_temperature;BMP_pressure;BME280_temperature;BME280_humidity;BME280_pressure;Samples;Min_cycle;Max_cycle;Signal;HPM_P1;HPM_P2
2022/08/27 00:02:04;;;;;;;6.90;4.50;;;;;;;;;;4980283;28;20033;-69
2022/08/27 00:04:29;;;;;;;6.88;4.82;;;;;;;;;;4998215;28;20026;-69
2022/08/27 00:06:55;;;;;;;8.55;4.90;;;;;;;;;;4980759;28;20064;-70
2022/08/27 00:09:21;;;;;;;8.60;4.65;;;;;;;;;;4998145;28;20104;-69
2022/08/27 00:11:46;;;;;;;9.48;4.57;;;;;;;;;;4998451;28;20469;-69
2022/08/27 00:14:12;;;;;;;8.45;4.78;;;;;;;;;;4997568;28;20501;-69
2022/08/27 00:16:38;;;;;;;5.40;4.70;;;;;;;;;;4997891;28;20432;-69
2022/08/27 00:19:04;;;;;;;7.28;4.90;;;;;;;;;;4997615;28;20034;-69
2022/08/27 00:21:31;;;;;;;7.72;4.82;;;;;;;;;;4997993;28;20031;-69
2022/08/27 00:23:57;;;;;;;5.50;4.30;;;;;;;;;;4997419;28;20036;-69
2022/08/27 00:26:23;;;;;;;4.40;3.95;;;;;;;;;;4997715;28;20094;-69
2022/08/27 00:28:49;;;;;;;6.43;3.78;;;;;;;;;;4997424;28;20030;-69
2022/08/27 00:31:14;;;;;;;5.45;4.03;;;;;;;;;;4997353;28;20032;-69
2022/08/27 00:33:40;;;;;;;6.32;4.07;;;;;;;;;;4980221;28;20388;-69
2022/08/27 00:36:06;;;;;;;4.75;3.70;;;;;;;;;;4997242;28;20034;-69
2022/08/27 00:38:32;;;;;;;4.28;3.92;;;;;;;;;;4997780;28;20037;-69
2022/08/27 00:40:59;;;;;;;4.40;3.83;;;;;;;;;;4997366;28;20518;-70
2022/08/27 00:43:27;;;;;;;6.30;4.07;;;;;;;;;;4979778;28;20081;-69
2022/08/27 00:45:54;;;;;;;7.90;4.20;;;;;;;;;;4979592;28;20037;-69
2022/08/27 00:48:23;;;;;;;4.60;4.03;;;;;;;;;;4997319;28;20470;-69
2022/08/27 00:50:50;;;;;;;5.75;4.18;;;;;;;;;;4997028;28;20027;-69
2022/08/27 00:53:18;;;;;;;9.48;4.45;;;;;;;;;;4997215;28;20501;-70
2022/08/27 00:55:45;;;;;;;5.25;4.38;;;;;;;;;;4997013;28;20464;-70
2022/08/27 00:58:20;;;;;;;6.13;4.25;;;;;;;;;;4997488;28;20365;-70
2022/08/27 01:00:46;;;;;;;6.15;3.70;;;;;;;;;;4997225;28;20030;-69
2022/08/27 01:03:12;;;;;;;4.60;4.07;;;;;;;;;;4997075;28;20018;-69
2022/08/27 01:05:38;;;;;;;6.57;4.10;;;;;;;;;;4996725;28;20050;-69
2022/08/27 01:08:10;;;;;;;4.40;4.00;;;;;;;;;;4996688;28;20457;-69
2022/08/27 01:10:36;;;;;;;8.27;4.25;;;;;;;;;;4997191;28;20034;-69
2022/08/27 01:13:02;;;;;;;6.95;4.28;;;;;;;;;;4979138;28;20042;-69
2022/08/27 01:15:28;;;;;;;5.85;4.40;;;;;;;;;;4996495;28;20038;-70
2022/08/27 01:17:54;;;;;;;8.52;4.45;;;;;;;;;;4996788;28;20113;-69
2022/08/27 01:20:30;;;;;;;8.10;4.43;;;;;;;;;;4996376;28;20193;-69
2022/08/27 01:23:08;;;;;;;7.45;4.30;;;;;;;;;;4996659;28;20034;-69
2022/08/27 01:25:34;;;;;;;6.95;4.70;;;;;;;;;;4996806;28;20453;-70
2022/08/27 01:28:01;;;;;;;6.20;4.45;;;;;;;;;;4996606;28;20026;-70
2022/08/27 01:30:26;;;;;;;8.40;4.60;;;;;;;;;;4996223;28;20113;-70
2022/08/27 01:32:52;;;;;;;6.68;4.32;;;;;;;;;;4978972;28;20077;-70
2022/08/27 01:35:19;;;;;;;7.72;4.28;;;;;;;;;;5039563;23;20124;-64
2022/08/27 01:37:45;;;;;;;6.60;4.38;;;;;;;;;;5035294;28;20036;-70
2022/08/27 01:40:11;;;;;;;4.80;4.15;;;;;;;;;;5035468;28;20045;-71
2022/08/27 01:42:38;;;;;;;5.20;3.97;;;;;;;;;;5035960;28;20025;-71
2022/08/27 01:45:11;;;;;;;4.47;4.10;;;;;;;;;;5035323;28;20516;-70
2022/08/27 01:47:37;;;;;;;4.97;3.88;;;;;;;;;;5035571;28;20029;-70
2022/08/27 01:50:04;;;;;;;4.35;3.95;;;;;;;;;;5035591;28;20100;-70
2022/08/27 01:52:30;;;;;;;3.85;3.55;;;;;;;;;;5035668;28;20026;-70
2022/08/27 01:54:55;;;;;;;4.05;3.65;;;;;;;;;;5035287;28;20091;-70
2022/08/27 01:57:21;;;;;;;4.88;3.90;;;;;;;;;;5035329;28;20033;-70
2022/08/27 01:59:47;;;;;;;4.72;3.72;;;;;;;;;;5017273;28;20084;-70
2022/08/27 02:02:15;;;;;;;5.03;3.63;;;;;;;;;;5035025;28;20080;-70
2022/08/27 02:04:40;;;;;;;4.55;3.80;;;;;;;;;;5017620;28;20056;-70
2022/08/27 02:07:06;;;;;;;4.03;3.55;;;;;;;;;;5035269;28;20057;-69
2022/08/27 02:09:32;;;;;;;4.18;3.55;;;;;;;;;;5034624;28;20014;-69
2022/08/27 02:11:59;;;;;;;5.32;3.50;;;;;;;;;;5035393;28;20092;-70
2022/08/27 02:14:24;;;;;;;5.53;3.63;;;;;;;;;;5035379;28;20021;-70
2022/08/27 02:16:50;;;;;;;4.20;3.78;;;;;;;;;;5034751;28;20476;-70
2022/08/27 02:19:15;;;;;;;4.63;3.45;;;;;;;;;;5034711;28;20100;-70
2022/08/27 02:21:40;;;;;;;4.70;3.90;;;;;;;;;;5035191;28;20111;-70
2022/08/27 02:24:06;;;;;;;5.57;3.58;;;;;;;;;;5034950;28;20384;-68
2022/08/27 02:26:31;;;;;;;4.57;3.60;;;;;;;;;;5034796;28;20121;-69
2022/08/27 02:28:56;;;;;;;3.80;3.42;;;;;;;;;;5016734;28;20052;-68
2022/08/27 02:31:22;;;;;;;4.28;3.88;;;;;;;;;;5034758;28;20040;-68
2022/08/27 02:33:48;;;;;;;3.78;3.47;;;;;;;;;;5034412;28;20093;-68
2022/08/27 02:36:13;;;;;;;3.88;3.55;;;;;;;;;;5034367;28;20049;-68
2022/08/27 02:38:39;;;;;;;5.25;3.95;;;;;;;;;;5034613;28;20088;-68
2022/08/27 02:41:05;;;;;;;6.15;4.18;;;;;;;;;;5034282;28;20038;-68
2022/08/27 02:43:30;;;;;;;4.78;3.60;;;;;;;;;;5034293;28;20092;-68
2022/08/27 02:45:56;;;;;;;4.93;3.65;;;;;;;;;;5034239;28;20037;-70
2022/08/27 02:48:23;;;;;;;5.18;4.15;;;;;;;;;;5034495;28;20024;-70
2022/08/27 02:50:49;;;;;;;5.05;4.07;;;;;;;;;;5034160;28;20456;-69
2022/08/27 02:53:14;;;;;;;8.55;4.63;;;;;;;;;;5034207;28;20032;-69
2022/08/27 02:55:40;;;;;;;4.68;4.05;;;;;;;;;;5034032;28;20388;-68
2022/08/27 02:58:05;;;;;;;7.15;4.53;;;;;;;;;;5034295;28;20408;-68
2022/08/27 03:00:31;;;;;;;5.45;4.10;;;;;;;;;;5034218;28;20033;-68
2022/08/27 03:02:56;;;;;;;4.85;3.78;;;;;;;;;;5033927;28;20100;-70
2022/08/27 03:05:22;;;;;;;4.80;3.95;;;;;;;;;;5016173;28;20033;-70
2022/08/27 03:07:48;;;;;;;3.88;3.58;;;;;;;;;;5034441;28;20021;-70
2022/08/27 03:10:15;;;;;;;4.18;3.78;;;;;;;;;;5033908;28;20034;-70
2022/08/27 03:12:40;;;;;;;6.22;4.25;;;;;;;;;;5034106;28;20029;-70
2022/08/27 03:15:07;;;;;;;5.20;3.95;;;;;;;;;;5016326;28;20044;-70
2022/08/27 03:20:17;;;;;;;5.28;3.85;;;;;;;;;;5033702;28;20052;-70
2022/08/27 03:22:43;;;;;;;4.72;3.60;;;;;;;;;;5033374;28;20025;-71
2022/08/27 03:25:10;;;;;;;4.35;3.90;;;;;;;;;;5033621;28;20053;-70
2022/08/27 03:27:35;;;;;;;7.30;3.70;;;;;;;;;;5033962;28;20032;-70
2022/08/27 03:30:05;;;;;;;6.03;4.00;;;;;;;;;;5033874;28;20026;-70
2022/08/27 03:32:30;;;;;;;5.75;3.67;;;;;;;;;;5033942;28;20515;-70
2022/08/27 03:34:57;;;;;;;4.45;3.80;;;;;;;;;;5033566;28;20129;-70
2022/08/27 03:37:23;;;;;;;4.72;3.55;;;;;;;;;;5033542;28;20103;-70
2022/08/27 03:39:48;;;;;;;8.23;3.85;;;;;;;;;;5016276;28;20360;-69
2022/08/27 03:42:14;;;;;;;6.03;3.92;;;;;;;;;;5033453;28;20432;-69
2022/08/27 03:44:39;;;;;;;4.95;4.13;;;;;;;;;;5033622;28;20032;-69
2022/08/27 03:47:05;;;;;;;3.85;3.38;;;;;;;;;;5015861;28;20061;-69
2022/08/27 03:49:30;;;;;;;4.38;3.70;;;;;;;;;;5033741;28;20037;-69
2022/08/27 03:51:56;;;;;;;4.75;3.95;;;;;;;;;;5033386;28;20021;-70
2022/08/27 03:54:21;;;;;;;4.13;3.83;;;;;;;;;;5033940;28;20120;-70
2022/08/27 03:56:47;;;;;;;4.18;3.83;;;;;;;;;;5033690;28;20092;-70
2022/08/27 03:59:14;;;;;;;4.13;3.83;;;;;;;;;;5033337;28;20560;-70
2022/08/27 04:01:39;;;;;;;6.53;4.28;;;;;;;;;;5015568;28;20491;-70
2022/08/27 04:04:05;;;;;;;6.03;4.38;;;;;;;;;;5033293;28;20041;-70
2022/08/27 04:06:32;;;;;;;4.85;4.45;;;;;;;;;;5033292;28;20022;-64
2022/08/27 04:08:59;;;;;;;7.70;4.75;;;;;;;;;;5016197;28;20022;-64
2022/08/27 04:11:24;;;;;;;4.70;4.30;;;;;;;;;;5033702;28;20083;-64
2022/08/27 04:13:50;;;;;;;6.15;4.95;;;;;;;;;;5033739;28;20030;-64
2022/08/27 04:16:16;;;;;;;5.43;4.72;;;;;;;;;;5033211;28;20025;-63
2022/08/27 04:18:41;;;;;;;5.43;4.80;;;;;;;;;;5015430;28;20029;-64
2022/08/27 04:21:08;;;;;;;5.95;4.70;;;;;;;;;;5033119;28;20022;-63
2022/08/27 04:23:33;;;;;;;5.05;4.65;;;;;;;;;;5032867;28;20026;-64
2022/08/27 04:25:59;;;;;;;5.55;4.47;;;;;;;;;;5032637;28;20009;-63
2022/08/27 04:28:25;;;;;;;6.80;4.68;;;;;;;;;;5032487;28;20022;-63
2022/08/27 04:30:50;;;;;;;5.13;4.60;;;;;;;;;;5014473;28;20175;-63
2022/08/27 04:33:16;;;;;;;5.00;4.53;;;;;;;;;;5034739;28;20061;-63
2022/08/27 04:35:41;;;;;;;6.03;5.05;;;;;;;;;;5018041;28;20514;-63
2022/08/27 04:38:07;;;;;;;8.90;4.55;;;;;;;;;;5036333;28;20033;-63
2022/08/27 04:43:17;;;;;;;5.28;4.53;;;;;;;;;;5036084;28;20040;-63
2022/08/27 04:45:43;;;;;;;5.22;4.28;;;;;;;;;;5036143;28;20021;-63
2022/08/27 04:48:09;;;;;;;7.60;4.40;;;;;;;;;;5036190;28;20028;-63
2022/08/27 04:50:38;;;;;;;5.20;4.70;;;;;;;;;;5036251;28;20080;-63
2022/08/27 04:53:03;;;;;;;6.80;4.50;;;;;;;;;;5018248;28;20068;-63
2022/08/27 04:55:29;;;;;;;6.78;4.45;;;;;;;;;;5036068;28;20029;-63
2022/08/27 04:57:54;;;;;;;6.90;5.00;;;;;;;;;;5036008;28;20029;-63
2022/08/27 05:00:20;;;;;;;5.95;4.93;;;;;;;;;;5035930;28;20425;-63
2022/08/27 05:02:45;;;;;;;5.28;4.78;;;;;;;;;;5018265;28;20037;-63
2022/08/27 05:05:11;;;;;;;6.53;4.65;;;;;;;;;;5035858;28;20021;-63
2022/08/27 05:07:36;;;;;;;5.20;4.70;;;;;;;;;;5036031;28;20021;-63
2022/08/27 05:10:02;;;;;;;4.85;4.45;;;;;;;;;;5035823;28;20419;-63
2022/08/27 05:12:27;;;;;;;6.30;4.80;;;;;;;;;;5035865;28;20456;-63
2022/08/27 05:14:53;;;;;;;5.65;4.82;;;;;;;;;;5017904;28;20026;-63
2022/08/27 05:17:20;;;;;;;6.65;5.13;;;;;;;;;;5036085;28;20048;-63
2022/08/27 05:19:45;;;;;;;5.82;4.78;;;;;;;;;;5018057;28;20017;-63
2022/08/27 05:22:11;;;;;;;9.57;5.15;;;;;;;;;;5035644;28;20156;-63
2022/08/27 05:24:36;;;;;;;6.40;5.43;;;;;;;;;;5035218;28;20028;-63
2022/08/27 05:27:01;;;;;;;5.85;5.25;;;;;;;;;;5035379;28;20431;-63
2022/08/27 05:29:27;;;;;;;6.18;5.40;;;;;;;;;;5017879;28;20383;-63
2022/08/27 05:31:53;;;;;;;9.40;5.72;;;;;;;;;;5035382;28;20035;-63
2022/08/27 05:34:20;;;;;;;7.78;5.57;;;;;;;;;;5035448;28;20363;-63
2022/08/27 05:36:46;;;;;;;6.35;5.70;;;;;;;;;;5035146;28;20049;-64
2022/08/27 05:39:11;;;;;;;7.78;5.72;;;;;;;;;;5035407;28;20037;-63
2022/08/27 05:41:36;;;;;;;8.45;5.63;;;;;;;;;;5035197;28;20124;-64
2022/08/27 05:44:04;;;;;;;7.47;5.80;;;;;;;;;;5034341;28;20024;-64
2022/08/27 05:46:30;;;;;;;7.72;4.95;;;;;;;;;;5035258;28;20060;-63
2022/08/27 05:48:56;;;;;;;9.25;5.47;;;;;;;;;;5035109;28;20053;-64
2022/08/27 05:51:24;;;;;;;5.43;4.97;;;;;;;;;;5017369;28;20040;-64
2022/08/27 05:53:50;;;;;;;6.20;4.65;;;;;;;;;;5034991;28;20022;-64
2022/08/27 05:56:19;;;;;;;6.13;5.40;;;;;;;;;;5035188;28;20037;-64
2022/08/27 06:01:31;;;;;;;7.72;5.30;;;;;;;;;;5034624;28;20038;-63
2022/08/27 06:03:56;;;;;;;10.90;5.88;;;;;;;;;;5034761;28;20460;-63
2022/08/27 06:06:22;;;;;;;6.72;5.03;;;;;;;;;;5016685;28;20033;-67
2022/08/27 06:08:49;;;;;;;4.85;4.18;;;;;;;;;;5034827;28;20021;-64
2022/08/27 06:11:16;;;;;;;4.90;4.53;;;;;;;;;;5034709;28;20461;-63
2022/08/27 06:13:42;;;;;;;4.88;4.35;;;;;;;;;;5034958;28;20025;-63
2022/08/27 06:16:08;;;;;;;4.38;3.97;;;;;;;;;;5034747;28;20117;-64
2022/08/27 06:18:37;;;;;;;5.88;3.90;;;;;;;;;;5034502;28;20033;-70
2022/08/27 06:21:04;;;;;;;6.63;5.18;;;;;;;;;;5034554;28;20033;-63
2022/08/27 06:23:29;;;;;;;6.55;5.22;;;;;;;;;;5034502;28;20100;-70
2022/08/27 06:25:56;;;;;;;4.78;4.38;;;;;;;;;;5034505;28;20118;-70
2022/08/27 06:28:22;;;;;;;6.32;4.55;;;;;;;;;;5016483;28;20038;-70
2022/08/27 06:30:47;;;;;;;7.70;5.45;;;;;;;;;;5033247;28;20033;-71
2022/08/27 06:33:13;;;;;;;6.78;5.45;;;;;;;;;;5033534;28;20021;-70
2022/08/27 06:35:39;;;;;;;8.45;5.13;;;;;;;;;;5033054;28;20045;-70
2022/08/27 06:38:04;;;;;;;5.65;5.13;;;;;;;;;;5015607;28;20030;-70
2022/08/27 06:40:30;;;;;;;6.63;5.18;;;;;;;;;;5031761;28;20034;-70
2022/08/27 06:42:55;;;;;;;7.43;5.70;;;;;;;;;;5032049;28;20096;-70
2022/08/27 06:45:21;;;;;;;10.52;5.68;;;;;;;;;;5031942;28;20113;-70
2022/08/27 06:47:46;;;;;;;5.95;5.30;;;;;;;;;;5031649;28;20018;-70
2022/08/27 06:50:11;;;;;;;5.95;5.38;;;;;;;;;;5031860;28;20407;-70
2022/08/27 06:52:37;;;;;;;5.60;5.10;;;;;;;;;;5031695;28;20024;-70
2022/08/27 06:55:03;;;;;;;7.28;5.38;;;;;;;;;;5033061;28;20105;-71
2022/08/27 06:57:28;;;;;;;8.32;5.57;;;;;;;;;;5033000;28;20017;-70
2022/08/27 06:59:54;;;;;;;6.85;5.35;;;;;;;;;;5032990;28;20030;-71
2022/08/27 07:02:19;;;;;;;6.55;5.75;;;;;;;;;;5032832;28;20077;-70
2022/08/27 07:04:45;;;;;;;8.40;5.18;;;;;;;;;;5032843;28;20387;-70
2022/08/27 07:07:12;;;;;;;8.50;5.57;;;;;;;;;;5032805;28;20029;-70
2022/08/27 07:09:37;;;;;;;7.53;5.40;;;;;;;;;;5032788;28;20033;-70
2022/08/27 07:12:03;;;;;;;6.53;5.30;;;;;;;;;;5032728;28;20025;-70
2022/08/27 07:14:29;;;;;;;7.95;5.50;;;;;;;;;;5032668;28;20034;-70
2022/08/27 07:16:55;;;;;;;7.47;5.28;;;;;;;;;;5032669;28;20032;-70
2022/08/27 07:19:20;;;;;;;6.38;5.05;;;;;;;;;;5032721;28;20036;-70
2022/08/27 07:21:46;;;;;;;5.80;5.30;;;;;;;;;;5032547;28;20100;-70
2022/08/27 07:24:11;;;;;;;10.00;5.00;;;;;;;;;;5032621;28;20479;-70
2022/08/27 07:26:40;;;;;;;7.78;5.25;;;;;;;;;;5014795;28;20072;-70
2022/08/27 07:29:06;;;;;;;6.57;5.03;;;;;;;;;;5032583;28;20032;-70
2022/08/27 07:31:34;;;;;;;11.48;5.65;;;;;;;;;;5032585;28;20021;-70
2022/08/27 07:34:00;;;;;;;12.90;5.25;;;;;;;;;;5032532;28;20462;-70
2022/08/27 07:36:25;;;;;;;8.90;5.05;;;;;;;;;;5014625;28;20054;-69
2022/08/27 07:38:54;;;;;;;6.38;4.97;;;;;;;;;;5032509;28;20080;-71
2022/08/27 07:41:19;;;;;;;9.25;5.03;;;;;;;;;;5032360;28;20026;-70
2022/08/27 07:46:29;;;;;;;5.70;4.70;;;;;;;;;;5032380;28;20022;-70
2022/08/27 07:48:56;;;;;;;5.50;4.75;;;;;;;;;;5032378;28;20430;-70
2022/08/27 07:51:22;;;;;;;6.75;4.97;;;;;;;;;;5032293;28;20057;-70
2022/08/27 07:53:47;;;;;;;6.70;5.63;;;;;;;;;;5032606;28;20030;-70
2022/08/27 07:56:13;;;;;;;8.90;5.25;;;;;;;;;;5032327;28;20034;-70
2022/08/27 07:58:39;;;;;;;4.07;3.72;;;;;;;;;;5032301;28;20025;-70
2022/08/27 08:01:05;;;;;;;7.90;4.65;;;;;;;;;;5032188;28;20025;-70
2022/08/27 08:03:30;;;;;;;7.00;4.82;;;;;;;;;;5032268;28;20025;-70
2022/08/27 08:06:00;;;;;;;5.07;4.22;;;;;;;;;;5032173;28;20034;-70
2022/08/27 08:08:26;;;;;;;4.93;3.97;;;;;;;;;;5034867;28;20353;-70
2022/08/27 08:10:51;;;;;;;5.05;4.43;;;;;;;;;;5036109;28;20024;-70
2022/08/27 08:13:17;;;;;;;5.53;4.82;;;;;;;;;;5036003;28;20040;-69
2022/08/27 08:15:43;;;;;;;5.40;4.95;;;;;;;;;;5036272;28;20033;-69
2022/08/27 08:18:09;;;;;;;6.03;4.90;;;;;;;;;;5035899;28;20360;-69
2022/08/27 08:20:34;;;;;;;5.38;4.43;;;;;;;;;;5035843;28;20025;-69
2022/08/27 08:23:00;;;;;;;5.82;4.80;;;;;;;;;;5036333;28;20030;-69
2022/08/27 08:25:25;;;;;;;7.32;5.40;;;;;;;;;;5037194;28;20059;-69
2022/08/27 08:27:50;;;;;;;6.28;4.93;;;;;;;;;;5036849;28;20030;-67
2022/08/27 08:30:16;;;;;;;5.70;4.40;;;;;;;;;;5036834;28;20021;-67
2022/08/27 08:32:42;;;;;;;7.55;5.00;;;;;;;;;;5036799;28;20498;-67
2022/08/27 08:35:08;;;;;;;7.30;4.78;;;;;;;;;;5036481;28;20413;-67
2022/08/27 08:37:34;;;;;;;13.48;5.65;;;;;;;;;;5036913;28;20426;-67
2022/08/27 08:40:00;;;;;;;8.45;5.38;;;;;;;;;;5036842;28;20029;-67
2022/08/27 08:42:31;;;;;;;7.03;5.07;;;;;;;;;;5036471;28;20088;-67
2022/08/27 08:44:58;;;;;;;7.07;5.47;;;;;;;;;;5037026;28;20116;-67
2022/08/27 08:47:30;;;;;;;7.03;5.07;;;;;;;;;;5036465;28;20071;-67
2022/08/27 08:50:01;;;;;;;8.05;5.28;;;;;;;;;;5036408;28;20534;-67
2022/08/27 08:52:33;;;;;;;6.13;4.72;;;;;;;;;;5036609;28;20036;-67
2022/08/27 08:55:04;;;;;;;6.57;4.75;;;;;;;;;;5036845;28;20484;-67
2022/08/27 08:57:35;;;;;;;9.30;4.78;;;;;;;;;;5036424;28;20037;-67
2022/08/27 09:00:06;;;;;;;10.82;5.05;;;;;;;;;;5036483;28;20037;-67
2022/08/27 09:02:31;;;;;;;11.68;4.63;;;;;;;;;;5036746;28;20033;-67
2022/08/27 09:05:01;;;;;;;6.82;5.45;;;;;;;;;;5036154;28;20097;-67
2022/08/27 09:13:18;;;;;;;6.30;5.55;;;;;;;;;;4888600;23;20049;-62
2022/08/27 09:15:44;;;;;;;8.52;5.80;;;;;;;;;;4919285;29;20126;-67
2022/08/27 09:18:11;;;;;;;8.25;5.72;;;;;;;;;;4938185;29;20063;-67
2022/08/27 09:20:37;;;;;;;8.27;4.85;;;;;;;;;;4937586;29;20043;-67
2022/08/27 09:23:15;;;;;;;7.97;4.50;;;;;;;;;;4938580;29;20411;-67
2022/08/27 09:25:41;;;;;;;6.00;4.35;;;;;;;;;;4921432;29;20375;-67
2022/08/27 09:31:13;;;;;;;10.05;5.07;;;;;;;;;;4938667;29;20054;-67
2022/08/27 09:33:38;;;;;;;6.07;5.00;;;;;;;;;;4938660;29;20020;-67
2022/08/27 09:36:08;;;;;;;7.32;5.10;;;;;;;;;;4938296;29;20111;-67
2022/08/27 09:38:34;;;;;;;9.37;5.20;;;;;;;;;;4938578;29;20478;-67
2022/08/27 09:41:01;;;;;;;11.38;5.55;;;;;;;;;;4938151;29;20039;-67
2022/08/27 09:43:28;;;;;;;7.20;5.03;;;;;;;;;;4938192;29;20096;-67
2022/08/27 09:45:55;;;;;;;8.90;5.28;;;;;;;;;;4937968;29;20039;-67
2022/08/27 09:48:25;;;;;;;8.27;4.75;;;;;;;;;;4921094;29;20435;-67
2022/08/27 09:50:53;;;;;;;7.60;4.75;;;;;;;;;;4921576;29;20043;-67
2022/08/27 09:53:20;;;;;;;6.82;5.15;;;;;;;;;;4938168;29;20071;-67
2022/08/27 09:55:52;;;;;;;5.15;4.45;;;;;;;;;;4937953;29;20479;-67
2022/08/27 09:58:19;;;;;;;5.50;4.97;;;;;;;;;;4937908;29;20039;-67
2022/08/27 10:00:45;;;;;;;7.43;3.75;;;;;;;;;;4937794;29;20071;-67
2022/08/27 10:03:10;;;;;;;8.98;4.68;;;;;;;;;;4937904;29;20028;-67
2022/08/27 10:05:38;;;;;;;8.45;4.97;;;;;;;;;;4937809;29;20094;-67
2022/08/27 10:08:16;;;;;;;6.95;5.07;;;;;;;;;;4937675;29;20038;-67
2022/08/27 10:10:50;;;;;;;6.75;5.07;;;;;;;;;;4937683;29;20110;-67
2022/08/27 10:13:22;;;;;;;7.57;4.90;;;;;;;;;;4920780;29;20040;-67
2022/08/27 10:16:08;;;;;;;7.07;4.90;;;;;;;;;;4936329;29;20047;-67
2022/08/27 10:18:40;;;;;;;4.65;3.63;;;;;;;;;;4936500;29;20110;-67
2022/08/27 10:21:24;;;;;;;9.70;4.07;;;;;;;;;;4936325;29;20039;-67
2022/08/27 10:23:49;;;;;;;6.22;4.10;;;;;;;;;;4936379;29;20059;-67
2022/08/27 10:26:18;;;;;;;6.78;4.32;;;;;;;;;;4936281;29;20059;-67
2022/08/27 10:28:55;;;;;;;8.73;4.35;;;;;;;;;;4936552;29;20051;-67
2022/08/27 10:31:44;;;;;;;6.20;4.05;;;;;;;;;;4918803;29;20442;-67
2022/08/27 10:34:10;;;;;;;11.77;4.80;;;;;;;;;;4919007;29;20099;-67
2022/08/27 10:36:43;;;;;;;5.85;4.40;;;;;;;;;;4936136;29;20082;-67
2022/08/27 10:39:12;;;;;;;8.82;4.40;;;;;;;;;;4936056;29;20028;-67
2022/08/27 10:41:43;;;;;;;8.27;3.67;;;;;;;;;;4936019;29;20027;-67
2022/08/27 10:44:11;;;;;;;8.23;3.80;;;;;;;;;;4936049;29;20114;-68
2022/08/27 10:46:55;;;;;;;5.63;3.80;;;;;;;;;;4936014;29;20012;-67
2022/08/27 10:49:27;;;;;;;5.88;3.75;;;;;;;;;;4935966;29;20099;-67
2022/08/27 10:51:57;;;;;;;7.43;3.55;;;;;;;;;;4935888;29;20028;-67
2022/08/27 10:54:26;;;;;;;7.93;3.63;;;;;;;;;;4935886;29;20028;-67
2022/08/27 10:57:15;;;;;;;9.10;3.85;;;;;;;;;;4918931;29;20071;-67
2022/08/27 10:59:58;;;;;;;5.10;3.58;;;;;;;;;;4913572;29;20043;-67
2022/08/27 11:02:45;;;;;;;7.35;4.55;;;;;;;;;;4935654;29;20050;-67
2022/08/27 11:05:15;;;;;;;5.68;3.92;;;;;;;;;;4936019;29;20020;-67
2022/08/27 11:07:44;;;;;;;8.35;4.18;;;;;;;;;;4935731;29;20534;-67
2022/08/27 11:10:13;;;;;;;10.88;4.47;;;;;;;;;;4935651;29;20035;-67
2022/08/27 11:12:41;;;;;;;7.85;4.53;;;;;;;;;;4935647;29;20035;-67
2022/08/27 11:15:07;;;;;;;7.47;5.10;;;;;;;;;;4929536;29;20051;-67
2022/08/27 11:17:38;;;;;;;11.38;5.60;;;;;;;;;;4935524;29;20087;-67
2022/08/27 11:20:17;;;;;;;6.55;5.28;;;;;;;;;;4935491;29;20024;-67
2022/08/27 11:22:48;;;;;;;6.28;4.78;;;;;;;;;;4935481;29;20039;-67
2022/08/27 11:25:27;;;;;;;4.68;4.22;;;;;;;;;;4935488;29;20028;-67
2022/08/27 11:27:53;;;;;;;5.95;4.45;;;;;;;;;;4935428;29;20035;-67
2022/08/27 11:30:34;;;;;;;6.40;4.85;;;;;;;;;;4935385;29;20051;-67
2022/08/27 11:33:05;;;;;;;5.03;4.60;;;;;;;;;;4935389;29;20027;-69
2022/08/27 11:35:45;;;;;;;6.88;4.65;;;;;;;;;;4935353;29;20038;-69
2022/08/27 11:38:10;;;;;;;;;;;;;;;;;;4935732;29;20023;-68
2022/08/27 11:40:42;;;;;;;5.87;4.17;;;;;;;;;;4935229;29;19917;-69
2022/08/27 11:43:14;;;;;;;7.38;4.78;;;;;;;;;;4937259;29;20094;-68
2022/08/27 11:45:51;;;;;;;7.20;4.78;;;;;;;;;;4939199;29;20032;-68
2022/08/27 11:48:21;;;;;;;13.20;6.30;;;;;;;;;;4939186;29;20032;-68
2022/08/27 11:51:00;;;;;;;12.90;6.18;;;;;;;;;;4939169;29;20038;-68
2022/08/27 11:53:27;;;;;;;11.07;5.95;;;;;;;;;;4939101;29;20506;-68
2022/08/27 11:55:53;;;;;;;10.80;6.30;;;;;;;;;;4937816;29;20023;-68
2022/08/27 11:58:22;;;;;;;7.45;5.47;;;;;;;;;;4938979;29;20116;-68
2022/08/27 12:00:48;;;;;;;6.15;5.63;;;;;;;;;;4937751;29;20028;-68
2022/08/27 12:03:17;;;;;;;7.78;5.38;;;;;;;;;;4937665;29;20023;-68
2022/08/27 12:05:44;;;;;;;8.65;5.40;;;;;;;;;;4938877;29;20023;-68
2022/08/27 12:08:22;;;;;;;14.13;6.88;;;;;;;;;;4938792;29;20042;-68
2022/08/27 12:10:57;;;;;;;8.13;6.22;;;;;;;;;;4938737;29;20036;-68
2022/08/27 12:13:29;;;;;;;7.40;5.10;;;;;;;;;;4937277;29;20126;-68
2022/08/27 12:15:55;;;;;;;6.85;5.47;;;;;;;;;;4937487;29;20027;-68
2022/08/27 12:18:41;;;;;;;5.90;4.82;;;;;;;;;;4904594;29;20402;-68
2022/08/27 12:21:25;;;;;;;6.88;5.35;;;;;;;;;;4926854;29;20044;-68
2022/08/27 12:24:10;;;;;;;10.27;5.60;;;;;;;;;;4937323;29;20032;-68
2022/08/27 12:26:37;;;;;;;8.52;5.32;;;;;;;;;;4937290;29;20074;-68
2022/08/27 12:29:17;;;;;;;8.55;5.57;;;;;;;;;;4920161;29;20102;-68
2022/08/27 12:31:44;;;;;;;8.68;5.78;;;;;;;;;;4937470;29;20079;-68
2022/08/27 12:34:36;;;;;;;11.35;6.00;;;;;;;;;;4937186;29;20055;-68
2022/08/27 12:37:01;;;;;;;11.25;5.47;;;;;;;;;;4934097;29;20122;-68
2022/08/27 12:39:28;;;;;;;9.32;5.60;;;;;;;;;;4937141;29;20055;-68
2022/08/27 12:41:54;;;;;;;8.93;4.90;;;;;;;;;;4937016;29;20039;-68
2022/08/27 12:44:22;;;;;;;8.90;5.13;;;;;;;;;;4936996;29;20531;-68
2022/08/27 12:47:09;;;;;;;11.20;4.88;;;;;;;;;;4936992;29;20165;-68
2022/08/27 12:49:43;;;;;;;7.40;5.03;;;;;;;;;;4919896;29;20039;-68
2022/08/27 12:52:18;;;;;;;9.25;4.97;;;;;;;;;;4936866;29;20066;-68
2022/08/27 12:54:56;;;;;;;13.32;7.03;;;;;;;;;;4919694;29;20083;-68
2022/08/27 12:57:30;;;;;;;6.97;5.45;;;;;;;;;;4936847;29;20039;-68
2022/08/27 13:00:01;;;;;;;10.75;5.15;;;;;;;;;;4936834;29;20051;-68
2022/08/27 13:02:34;;;;;;;8.20;4.75;;;;;;;;;;4936709;29;20031;-68
2022/08/27 13:05:03;;;;;;;10.35;5.13;;;;;;;;;;4936752;29;20035;-68
2022/08/27 13:07:32;;;;;;;8.73;4.68;;;;;;;;;;4936647;29;20024;-68
2022/08/27 13:10:08;;;;;;;7.00;4.55;;;;;;;;;;4936695;29;20036;-68
2022/08/27 13:12:33;;;;;;;7.53;4.70;;;;;;;;;;4936708;29;20657;-68
2022/08/27 13:15:05;;;;;;;9.82;4.95;;;;;;;;;;4893247;29;1294003;-68
2022/08/27 13:17:34;;;;;;;7.63;5.53;;;;;;;;;;4937590;29;20027;-68
2022/08/27 13:20:00;;;;;;;8.52;5.05;;;;;;;;;;4937597;29;20059;-68
2022/08/27 13:22:34;;;;;;;7.47;4.93;;;;;;;;;;4937488;29;20466;-68
2022/08/27 13:25:00;;;;;;;6.22;4.32;;;;;;;;;;4937438;29;20119;-68
2022/08/27 13:27:26;;;;;;;8.35;5.75;;;;;;;;;;4937452;29;20106;-69
2022/08/27 13:29:53;;;;;;;12.07;5.57;;;;;;;;;;4920331;29;20035;-69
2022/08/27 13:32:18;;;;;;;6.47;4.85;;;;;;;;;;4937374;29;20525;-68
2022/08/27 13:34:44;;;;;;;8.00;4.97;;;;;;;;;;4920484;29;20122;-68
2022/08/27 13:37:39;;;;;;;5.95;4.97;;;;;;;;;;4937228;29;20065;-68
2022/08/27 13:40:04;;;;;;;13.50;6.80;;;;;;;;;;4914765;29;20054;-68
2022/08/27 13:42:30;;;;;;;9.23;5.72;;;;;;;;;;4920436;29;20024;-68
2022/08/27 13:45:04;;;;;;;11.60;6.05;;;;;;;;;;4937140;29;20027;-68
2022/08/27 13:47:38;;;;;;;6.40;5.18;;;;;;;;;;4920049;29;20040;-68
2022/08/27 13:50:06;;;;;;;8.07;5.40;;;;;;;;;;4937105;29;20038;-68
2022/08/27 13:54:11;;;;;;;10.43;5.10;;;;;;;;;;4937058;29;20774;-68
2022/08/27 13:55:21;;;;;;;6.05;5.35;;;;;;;;;;4937045;29;20036;-68
2022/08/27 13:57:48;;;;;;;9.07;5.38;;;;;;;;;;4936899;29;20494;-68
2022/08/27 14:00:14;;;;;;;12.23;6.15;;;;;;;;;;4936871;29;20064;-68
2022/08/27 14:02:41;;;;;;;24.38;10.10;;;;;;;;;;4936765;29;20032;-68
2022/08/27 14:05:11;;;;;;;8.82;5.40;;;;;;;;;;4936066;29;20031;-68
2022/08/27 14:07:44;;;;;;;5.40;4.90;;;;;;;;;;4936688;29;20031;-68
2022/08/27 14:10:16;;;;;;;8.95;5.22;;;;;;;;;;4936603;29;20467;-68
2022/08/27 14:12:42;;;;;;;5.97;4.82;;;;;;;;;;4936641;29;20497;-68
2022/08/27 14:15:17;;;;;;;13.93;5.25;;;;;;;;;;4930547;29;20048;-69
2022/08/27 14:17:45;;;;;;;8.25;5.07;;;;;;;;;;4936548;29;20040;-64
2022/08/27 14:20:12;;;;;;;8.43;4.60;;;;;;;;;;4936467;29;20031;-68
2022/08/27 14:22:38;;;;;;;7.53;5.05;;;;;;;;;;4936336;29;20115;-64
2022/08/27 14:25:10;;;;;;;9.32;4.93;;;;;;;;;;4936870;29;20045;-64
2022/08/27 14:27:36;;;;;;;9.35;5.25;;;;;;;;;;4936830;29;20299;-64
2022/08/27 14:30:02;;;;;;;9.45;4.85;;;;;;;;;;4936791;29;20057;-64
2022/08/27 14:32:27;;;;;;;7.40;4.68;;;;;;;;;;4936656;29;20047;-64
2022/08/27 14:34:53;;;;;;;8.07;4.97;;;;;;;;;;4937871;29;20028;-64
2022/08/27 14:37:18;;;;;;;8.57;5.07;;;;;;;;;;4937540;29;20032;-64
2022/08/27 14:39:44;;;;;;;6.35;4.88;;;;;;;;;;4938074;29;20019;-64
2022/08/27 14:42:10;;;;;;;8.68;4.90;;;;;;;;;;4935839;29;20071;-64
2022/08/27 14:44:35;;;;;;;8.45;4.97;;;;;;;;;;4937160;29;20386;-64
2022/08/27 14:47:02;;;;;;;9.65;4.97;;;;;;;;;;4937425;29;20032;-64
2022/08/27 14:49:30;;;;;;;6.38;4.78;;;;;;;;;;4937358;29;20044;-64
2022/08/27 14:51:56;;;;;;;8.20;4.97;;;;;;;;;;4937317;29;20036;-64
2022/08/27 14:54:21;;;;;;;7.70;4.88;;;;;;;;;;4937001;29;20082;-64
2022/08/27 14:56:47;;;;;;;9.10;5.03;;;;;;;;;;4937221;29;20102;-64
2022/08/27 14:59:12;;;;;;;7.05;4.50;;;;;;;;;;4935601;29;20363;-64
2022/08/27 15:01:38;;;;;;;6.63;4.35;;;;;;;;;;4935651;29;20485;-64
2022/08/27 15:04:03;;;;;;;7.80;4.93;;;;;;;;;;4935606;29;20020;-66
2022/08/27 15:06:29;;;;;;;5.28;4.78;;;;;;;;;;4937066;29;20019;-62
2022/08/27 15:08:54;;;;;;;7.75;4.82;;;;;;;;;;4936769;29;20506;-63